createdAt,value
2017-07-30T00:00:36.830Z,0
2017-07-30T00:01:45.861Z,0
2017-07-30T00:02:54.827Z,0
2017-07-30T00:04:03.846Z,0
2017-07-30T00:05:12.811Z,0
2017-07-30T00:06:21.773Z,0
2017-07-30T00:07:30.733Z,0
2017-07-30T00:08:39.691Z,0
2017-07-30T00:09:48.993Z,0
2017-07-30T00:10:57.959Z,0
2017-07-30T00:12:07.018Z,0
2017-07-30T00:13:16.072Z,0
2017-07-30T00:14:25.142Z,0
2017-07-30T00:15:34.481Z,0
2017-07-30T00:16:43.741Z,0
2017-07-30T00:17:52.814Z,0
2017-07-30T00:19:01.773Z,0
2017-07-30T00:20:10.733Z,0
2017-07-30T00:21:19.689Z,0
2017-07-30T00:22:28.643Z,0
2017-07-30T00:23:37.697Z,0
2017-07-30T00:24:46.752Z,0
2017-07-30T00:25:56.034Z,0
2017-07-30T00:27:04.986Z,0
2017-07-30T00:28:13.946Z,0
2017-07-30T00:29:22.904Z,0
2017-07-30T00:30:31.972Z,0
2017-07-30T00:31:40.968Z,0
2017-07-30T00:32:50.061Z,0
2017-07-30T00:33:59.022Z,0
2017-07-30T00:35:08.112Z,0
2017-07-30T00:36:17.131Z,0
2017-07-30T00:37:26.092Z,0
2017-07-30T00:38:35.366Z,0
2017-07-30T00:39:44.444Z,0
2017-07-30T00:40:53.444Z,0
2017-07-30T00:42:02.401Z,0
2017-07-30T00:43:11.685Z,0
2017-07-30T00:44:20.647Z,0
2017-07-30T00:45:29.602Z,0
2017-07-30T00:46:38.559Z,0
2017-07-30T00:47:47.519Z,0
2017-07-30T00:48:56.484Z,0
2017-07-30T00:50:05.444Z,0
2017-07-30T00:51:14.487Z,0
2017-07-30T00:52:23.770Z,0
2017-07-30T00:53:32.734Z,0
2017-07-30T00:54:41.685Z,0
2017-07-30T00:55:51.071Z,0
2017-07-30T00:57:00.218Z,0
2017-07-30T00:58:09.707Z,0
2017-07-30T00:59:18.667Z,0
2017-07-30T01:00:27.924Z,0
2017-07-30T01:01:36.921Z,0
2017-07-30T01:02:45.878Z,0
2017-07-30T01:03:55.387Z,0
2017-07-30T01:05:04.412Z,0
2017-07-30T01:06:13.488Z,0
2017-07-30T01:07:22.493Z,0
2017-07-30T01:08:31.582Z,0
2017-07-30T01:09:40.689Z,0
2017-07-30T01:10:49.714Z,0
2017-07-30T01:11:58.848Z,0
2017-07-30T01:13:07.963Z,0
2017-07-30T01:14:16.993Z,0
2017-07-30T01:15:26.024Z,0
2017-07-30T01:16:35.011Z,0
2017-07-30T01:17:44.160Z,0
2017-07-30T01:18:53.224Z,0
2017-07-30T01:20:02.309Z,0
2017-07-30T01:21:11.360Z,0
2017-07-30T01:22:20.398Z,0
2017-07-30T01:23:29.847Z,0
2017-07-30T01:24:39.427Z,0
2017-07-30T01:25:48.534Z,0
2017-07-30T01:26:57.871Z,0
2017-07-30T01:28:06.837Z,0
2017-07-30T01:29:16.118Z,0
2017-07-30T01:30:25.082Z,0
2017-07-30T01:31:34.034Z,0
2017-07-30T01:32:42.987Z,0
2017-07-30T01:33:52.321Z,0
2017-07-30T01:35:01.281Z,0
2017-07-30T01:36:10.240Z,0
2017-07-30T01:37:19.208Z,0
2017-07-30T01:38:28.173Z,0
2017-07-30T01:39:37.454Z,0
2017-07-30T01:40:46.403Z,0
2017-07-30T01:41:55.371Z,0
2017-07-30T01:43:04.330Z,0
2017-07-30T01:44:13.294Z,0
2017-07-30T01:45:22.249Z,0
2017-07-30T01:46:31.207Z,0
2017-07-30T01:47:40.180Z,0
2017-07-30T01:48:49.144Z,0
2017-07-30T01:49:58.098Z,0
2017-07-30T01:51:07.052Z,0
2017-07-30T01:52:16.009Z,0
2017-07-30T01:53:24.969Z,0
2017-07-30T01:54:33.917Z,0
2017-07-30T01:55:42.879Z,0
2017-07-30T01:56:51.829Z,0
2017-07-30T01:58:00.785Z,0
2017-07-30T01:59:10.074Z,0
2017-07-30T02:00:19.033Z,0
2017-07-30T02:01:28.314Z,0
2017-07-30T02:02:37.592Z,0
2017-07-30T02:03:46.562Z,0
2017-07-30T02:04:55.524Z,0
2017-07-30T02:06:04.491Z,0
2017-07-30T02:07:13.445Z,0
2017-07-30T02:08:22.411Z,0
2017-07-30T02:09:31.374Z,0
2017-07-30T02:10:40.329Z,0
2017-07-30T02:11:49.290Z,0
2017-07-30T02:12:58.240Z,0
2017-07-30T02:14:07.200Z,0
2017-07-30T02:15:16.152Z,0
2017-07-30T02:16:25.121Z,0
2017-07-30T02:17:34.081Z,0
2017-07-30T02:18:43.040Z,0
2017-07-30T02:19:52.000Z,0
2017-07-30T02:21:00.973Z,0
2017-07-30T02:22:09.931Z,0
2017-07-30T02:23:18.884Z,0
2017-07-30T02:24:27.840Z,0
2017-07-30T02:25:36.802Z,0
2017-07-30T02:26:45.764Z,0
2017-07-30T02:27:54.716Z,0
2017-07-30T02:29:03.994Z,0
2017-07-30T02:30:13.045Z,0
2017-07-30T02:31:22.009Z,0
2017-07-30T02:32:30.961Z,0
2017-07-30T02:33:39.928Z,0
2017-07-30T02:34:49.205Z,0
2017-07-30T02:35:58.167Z,0
2017-07-30T02:37:07.123Z,0
2017-07-30T02:38:16.083Z,0
2017-07-30T02:39:25.365Z,0
2017-07-30T02:40:34.319Z,0
2017-07-30T02:41:43.276Z,0
2017-07-30T02:42:52.255Z,0
2017-07-30T02:44:01.215Z,0
2017-07-30T02:45:10.189Z,0
2017-07-30T02:46:19.169Z,0
2017-07-30T02:47:28.477Z,0
2017-07-30T02:48:37.434Z,0
2017-07-30T02:49:46.717Z,0
2017-07-30T02:50:55.723Z,0
2017-07-30T02:52:05.011Z,0
2017-07-30T02:53:13.969Z,0
2017-07-30T02:54:22.933Z,0
2017-07-30T02:55:31.901Z,0
2017-07-30T02:56:40.857Z,0
2017-07-30T02:57:50.145Z,0
2017-07-30T02:58:59.098Z,0
2017-07-30T03:00:08.057Z,0
2017-07-30T03:01:17.012Z,0
2017-07-30T03:02:25.962Z,0
2017-07-30T03:03:34.920Z,0
2017-07-30T03:04:43.874Z,0
2017-07-30T03:05:53.166Z,0
2017-07-30T03:07:02.125Z,0
2017-07-30T03:08:11.078Z,0
2017-07-30T03:09:20.036Z,0
2017-07-30T03:10:28.991Z,0
2017-07-30T03:11:37.977Z,0
2017-07-30T03:12:46.936Z,0
2017-07-30T03:13:55.919Z,0
2017-07-30T03:15:05.218Z,0
2017-07-30T03:16:14.181Z,0
2017-07-30T03:17:23.142Z,0
2017-07-30T03:18:32.096Z,0
2017-07-30T03:19:41.076Z,0
2017-07-30T03:20:50.039Z,0
2017-07-30T03:21:59.007Z,0
2017-07-30T03:23:07.961Z,0
2017-07-30T03:24:16.913Z,0
2017-07-30T03:25:25.875Z,0
2017-07-30T03:26:34.835Z,0
2017-07-30T03:27:43.807Z,0
2017-07-30T03:28:52.764Z,0
2017-07-30T03:30:01.718Z,0
2017-07-30T03:31:10.685Z,0
2017-07-30T03:32:19.965Z,0
2017-07-30T03:33:28.921Z,0
2017-07-30T03:34:37.870Z,0
2017-07-30T03:35:46.826Z,0
2017-07-30T03:36:55.781Z,0
2017-07-30T03:38:04.739Z,0
2017-07-30T03:39:13.692Z,0
2017-07-30T03:40:22.644Z,0
2017-07-30T03:41:31.612Z,0
2017-07-30T03:42:40.888Z,0
2017-07-30T03:43:49.853Z,0
2017-07-30T03:44:58.817Z,0
2017-07-30T03:46:07.773Z,0
2017-07-30T03:47:16.732Z,0
2017-07-30T03:48:25.692Z,0
2017-07-30T03:49:34.648Z,0
2017-07-30T03:50:43.600Z,0
2017-07-30T03:51:52.552Z,0
2017-07-30T03:53:01.507Z,0
2017-07-30T03:54:10.486Z,0
2017-07-30T03:55:19.442Z,0
2017-07-30T03:56:28.394Z,0
2017-07-30T03:57:37.362Z,0
2017-07-30T03:58:46.320Z,0
2017-07-30T03:59:55.280Z,0
2017-07-30T04:01:04.247Z,0
2017-07-30T04:02:13.213Z,0
2017-07-30T04:03:22.169Z,0
2017-07-30T04:04:31.131Z,0
2017-07-30T04:05:40.089Z,5
2017-07-30T04:06:49.076Z,5
2017-07-30T04:07:58.037Z,5
2017-07-30T04:09:07.006Z,5
2017-07-30T04:10:16.301Z,5
2017-07-30T04:11:25.261Z,5
2017-07-30T04:12:34.217Z,5
2017-07-30T04:13:43.169Z,5
2017-07-30T04:14:52.122Z,5
2017-07-30T04:16:01.080Z,5
2017-07-30T04:17:10.045Z,10
2017-07-30T04:18:19.001Z,10
2017-07-30T04:19:28.274Z,10
2017-07-30T04:20:37.243Z,10
2017-07-30T04:21:46.205Z,10
2017-07-30T04:22:55.176Z,10
2017-07-30T04:24:04.136Z,10
2017-07-30T04:25:13.108Z,5
2017-07-30T04:26:22.079Z,5
2017-07-30T04:27:31.058Z,5
2017-07-30T04:28:40.014Z,5
2017-07-30T04:29:48.982Z,5
2017-07-30T04:30:57.944Z,5
2017-07-30T04:32:06.897Z,5
2017-07-30T04:33:15.852Z,5
2017-07-30T04:34:24.815Z,5
2017-07-30T04:35:33.775Z,5
2017-07-30T04:36:42.731Z,5
2017-07-30T04:37:51.692Z,5
2017-07-30T04:39:00.651Z,10
2017-07-30T04:40:09.622Z,10
2017-07-30T04:41:18.575Z,10
2017-07-30T04:42:27.542Z,10
2017-07-30T04:43:36.508Z,10
2017-07-30T04:44:45.461Z,10
2017-07-30T04:45:54.420Z,10
2017-07-30T04:47:03.379Z,10
2017-07-30T04:48:12.663Z,10
2017-07-30T04:49:21.949Z,10
2017-07-30T04:50:30.905Z,10
2017-07-30T04:51:39.858Z,10
2017-07-30T04:52:48.825Z,10
2017-07-30T04:53:57.781Z,10
2017-07-30T04:55:06.761Z,10
2017-07-30T04:56:15.714Z,10
2017-07-30T04:57:24.677Z,10
2017-07-30T04:58:33.630Z,10
2017-07-30T04:59:42.586Z,10
2017-07-30T05:00:51.540Z,10
2017-07-30T05:02:00.496Z,10
2017-07-30T05:03:09.455Z,15
2017-07-30T05:04:18.415Z,15
2017-07-30T05:05:27.377Z,15
2017-07-30T05:06:36.336Z,15
2017-07-30T05:07:45.294Z,15
2017-07-30T05:08:54.244Z,20
2017-07-30T05:10:03.204Z,20
2017-07-30T05:11:12.162Z,15
2017-07-30T05:12:21.123Z,15
2017-07-30T05:13:30.097Z,15
2017-07-30T05:14:39.375Z,20
2017-07-30T05:15:48.344Z,20
2017-07-30T05:16:57.626Z,20
2017-07-30T05:18:06.584Z,15
2017-07-30T05:19:15.542Z,15
2017-07-30T05:20:24.819Z,15
2017-07-30T05:21:33.779Z,15
2017-07-30T05:22:42.739Z,15
2017-07-30T05:23:51.708Z,15
2017-07-30T05:25:00.661Z,20
2017-07-30T05:26:09.939Z,20
2017-07-30T05:27:18.905Z,20
2017-07-30T05:28:27.860Z,20
2017-07-30T05:29:36.812Z,20
2017-07-30T05:30:45.803Z,20
2017-07-30T05:31:54.767Z,25
2017-07-30T05:33:03.724Z,25
2017-07-30T05:34:13.017Z,30
2017-07-30T05:35:21.980Z,35
2017-07-30T05:36:30.946Z,35
2017-07-30T05:37:39.905Z,30
2017-07-30T05:38:48.884Z,30
2017-07-30T05:39:57.851Z,30
2017-07-30T05:41:06.815Z,30
2017-07-30T05:42:15.771Z,25
2017-07-30T05:43:24.743Z,25
2017-07-30T05:44:33.697Z,25
2017-07-30T05:45:42.659Z,25
2017-07-30T05:46:51.613Z,20
2017-07-30T05:48:00.575Z,20
2017-07-30T05:49:09.535Z,20
2017-07-30T05:50:18.814Z,20
2017-07-30T05:51:27.771Z,25
2017-07-30T05:52:36.735Z,25
2017-07-30T05:53:45.700Z,25
2017-07-30T05:54:54.665Z,25
2017-07-30T05:56:03.624Z,25
2017-07-30T05:57:12.578Z,25
2017-07-30T05:58:21.555Z,25
2017-07-30T05:59:30.535Z,25
2017-07-30T06:00:39.498Z,35
2017-07-30T06:01:48.457Z,30
2017-07-30T06:02:57.422Z,30
2017-07-30T06:04:06.378Z,25
2017-07-30T06:05:15.344Z,25
2017-07-30T06:06:24.300Z,25
2017-07-30T06:07:33.268Z,25
2017-07-30T06:08:42.234Z,25
2017-07-30T06:09:51.195Z,25
2017-07-30T06:11:00.152Z,25
2017-07-30T06:12:09.107Z,30
2017-07-30T06:13:18.065Z,35
2017-07-30T06:14:27.015Z,35
2017-07-30T06:15:35.974Z,40
2017-07-30T06:16:44.929Z,40
2017-07-30T06:17:53.884Z,40
2017-07-30T06:19:02.852Z,50
2017-07-30T06:20:12.131Z,55
2017-07-30T06:21:21.104Z,60
2017-07-30T06:22:30.061Z,60
2017-07-30T06:23:39.040Z,60
2017-07-30T06:24:48.000Z,55
2017-07-30T06:25:56.957Z,50
2017-07-30T06:27:05.931Z,50
2017-07-30T06:28:14.884Z,50
2017-07-30T06:29:23.841Z,45
2017-07-30T06:30:32.797Z,40
2017-07-30T06:31:41.746Z,45
2017-07-30T06:32:50.709Z,45
2017-07-30T06:33:59.663Z,35
2017-07-30T06:35:08.620Z,40
2017-07-30T06:36:17.585Z,45
2017-07-30T06:37:26.541Z,55
2017-07-30T06:38:35.504Z,50
2017-07-30T06:39:44.467Z,45
2017-07-30T06:40:53.423Z,45
2017-07-30T06:42:02.383Z,35
2017-07-30T06:43:11.389Z,35
2017-07-30T06:44:20.346Z,35
2017-07-30T06:45:29.312Z,35
2017-07-30T06:46:38.271Z,35
2017-07-30T06:47:47.223Z,35
2017-07-30T06:48:56.185Z,35
2017-07-30T06:50:05.140Z,35
2017-07-30T06:51:14.109Z,35
2017-07-30T06:52:23.394Z,35
2017-07-30T06:53:32.361Z,35
2017-07-30T06:54:41.340Z,35
2017-07-30T06:55:50.298Z,35
2017-07-30T06:56:59.261Z,35
2017-07-30T06:58:08.221Z,35
2017-07-30T06:59:17.188Z,35
2017-07-30T07:00:26.148Z,35
2017-07-30T07:01:35.111Z,35
2017-07-30T07:02:44.068Z,35
2017-07-30T07:03:53.029Z,35
2017-07-30T07:05:02.012Z,35
2017-07-30T07:06:10.973Z,35
2017-07-30T07:07:19.936Z,35
2017-07-30T07:08:28.892Z,35
2017-07-30T07:09:37.845Z,35
2017-07-30T07:10:46.810Z,30
2017-07-30T07:11:55.779Z,30
2017-07-30T07:13:04.735Z,30
2017-07-30T07:14:13.702Z,35
2017-07-30T07:15:22.675Z,35
2017-07-30T07:16:31.631Z,35
2017-07-30T07:17:40.585Z,35
2017-07-30T07:18:49.854Z,35
2017-07-30T07:19:58.804Z,35
2017-07-30T07:21:07.772Z,35
2017-07-30T07:22:16.736Z,35
2017-07-30T07:23:25.699Z,35
2017-07-30T07:24:34.656Z,35
2017-07-30T07:25:43.634Z,35
2017-07-30T07:26:52.594Z,35
2017-07-30T07:28:01.565Z,35
2017-07-30T07:29:10.520Z,35
2017-07-30T07:30:19.474Z,35
2017-07-30T07:31:28.437Z,35
2017-07-30T07:32:37.388Z,35
2017-07-30T07:33:46.349Z,35
2017-07-30T07:34:55.320Z,35
2017-07-30T07:36:04.282Z,35
2017-07-30T07:37:13.253Z,35
2017-07-30T07:38:22.220Z,35
2017-07-30T07:39:31.179Z,35
2017-07-30T07:40:40.155Z,40
2017-07-30T07:41:49.117Z,40
2017-07-30T07:42:58.092Z,40
2017-07-30T07:44:07.061Z,35
2017-07-30T07:45:16.026Z,40
2017-07-30T07:46:24.981Z,40
2017-07-30T07:47:33.943Z,40
2017-07-30T07:48:43.137Z,40
2017-07-30T07:49:52.097Z,40
2017-07-30T07:51:01.060Z,40
2017-07-30T07:52:10.372Z,45
2017-07-30T07:53:19.360Z,40
2017-07-30T07:54:28.317Z,30
2017-07-30T07:55:37.304Z,25
2017-07-30T07:56:46.586Z,40
2017-07-30T07:58:08.124Z,40
2017-07-30T07:59:25.412Z,40
2017-07-30T08:00:35.032Z,40
2017-07-30T08:01:43.987Z,40
2017-07-30T08:02:52.943Z,40
2017-07-30T08:04:01.907Z,45
2017-07-30T08:05:10.871Z,45
2017-07-30T08:06:20.170Z,45
2017-07-30T08:07:29.135Z,45
2017-07-30T08:08:38.104Z,45
2017-07-30T08:09:47.388Z,45
2017-07-30T08:10:56.674Z,45
2017-07-30T08:12:05.643Z,45
2017-07-30T08:13:14.598Z,45
2017-07-30T08:14:23.604Z,45
2017-07-30T08:15:32.581Z,45
2017-07-30T08:16:41.547Z,45
2017-07-30T08:17:50.513Z,45
2017-07-30T08:18:59.468Z,45
2017-07-30T08:20:08.426Z,50
2017-07-30T08:21:17.628Z,50
2017-07-30T08:22:26.773Z,50
2017-07-30T08:23:35.734Z,50
2017-07-30T08:24:44.696Z,50
2017-07-30T08:25:53.680Z,55
2017-07-30T08:27:02.670Z,55
2017-07-30T08:28:11.660Z,60
2017-07-30T08:29:20.639Z,65
2017-07-30T08:30:29.619Z,65
2017-07-30T08:31:38.602Z,65
2017-07-30T08:32:47.602Z,65
2017-07-30T08:33:56.582Z,65
2017-07-30T08:35:05.571Z,70
2017-07-30T08:36:14.554Z,60
2017-07-30T08:37:23.537Z,65
2017-07-30T08:38:32.522Z,70
2017-07-30T08:39:41.833Z,70
2017-07-30T08:40:50.826Z,50
2017-07-30T08:41:59.802Z,50
2017-07-30T08:43:08.793Z,60
2017-07-30T08:44:17.769Z,65
2017-07-30T08:45:26.794Z,65
2017-07-30T08:46:35.785Z,55
2017-07-30T08:47:44.768Z,60
2017-07-30T08:48:53.749Z,65
2017-07-30T08:50:02.726Z,70
2017-07-30T08:51:11.709Z,70
2017-07-30T08:52:20.702Z,65
2017-07-30T08:53:29.685Z,65
2017-07-30T08:54:38.677Z,70
2017-07-30T08:55:47.663Z,70
2017-07-30T08:56:56.677Z,70
2017-07-30T08:58:05.662Z,70
2017-07-30T08:59:14.657Z,70
2017-07-30T09:00:23.639Z,70
2017-07-30T09:01:32.624Z,75
2017-07-30T09:02:41.618Z,70
2017-07-30T09:03:50.611Z,70
2017-07-30T09:04:59.595Z,70
2017-07-30T09:06:08.583Z,70
2017-07-30T09:07:17.571Z,70
2017-07-30T09:08:26.569Z,75
2017-07-30T09:09:35.555Z,70
2017-07-30T09:10:44.534Z,70
2017-07-30T09:11:53.516Z,70
2017-07-30T09:13:02.501Z,70
2017-07-30T09:14:11.499Z,65
2017-07-30T09:15:20.483Z,65
2017-07-30T09:16:29.473Z,65
2017-07-30T09:17:39.113Z,60
2017-07-30T09:18:48.097Z,60
2017-07-30T09:19:57.094Z,60
2017-07-30T09:21:06.076Z,60
2017-07-30T09:22:15.060Z,60
2017-07-30T09:23:24.054Z,65
2017-07-30T09:24:33.043Z,60
2017-07-30T09:25:42.351Z,65
2017-07-30T09:26:51.340Z,65
2017-07-30T09:28:00.325Z,65
2017-07-30T09:29:09.314Z,70
2017-07-30T09:30:18.300Z,70
2017-07-30T09:31:27.608Z,70
2017-07-30T09:32:36.589Z,70
2017-07-30T09:33:45.578Z,70
2017-07-30T09:34:54.554Z,75
2017-07-30T09:36:03.534Z,70
2017-07-30T09:37:12.521Z,70
2017-07-30T09:38:21.500Z,80
2017-07-30T09:39:30.487Z,80
2017-07-30T09:40:39.475Z,85
2017-07-30T09:41:48.460Z,85
2017-07-30T09:42:57.445Z,80
2017-07-30T09:44:06.432Z,80
2017-07-30T09:45:15.418Z,75
2017-07-30T09:46:24.406Z,70
2017-07-30T09:47:33.387Z,80
2017-07-30T09:48:42.345Z,80
2017-07-30T09:49:51.301Z,75
2017-07-30T09:51:00.256Z,80
2017-07-30T09:52:09.217Z,75
2017-07-30T09:53:18.183Z,80
2017-07-30T09:54:27.150Z,75
2017-07-30T09:55:36.456Z,75
2017-07-30T09:56:45.410Z,85
2017-07-30T09:57:54.382Z,80
2017-07-30T09:59:03.340Z,75
2017-07-30T10:00:12.311Z,75
2017-07-30T10:01:21.289Z,75
2017-07-30T10:02:30.600Z,75
2017-07-30T10:03:39.556Z,70
2017-07-30T10:04:48.520Z,80
2017-07-30T10:05:57.491Z,80
2017-07-30T10:07:06.451Z,75
2017-07-30T10:08:15.412Z,75
2017-07-30T10:09:24.375Z,75
2017-07-30T10:10:33.335Z,80
2017-07-30T10:11:42.295Z,75
2017-07-30T10:12:51.256Z,80
2017-07-30T10:14:00.223Z,75
2017-07-30T10:15:09.190Z,75
2017-07-30T10:16:18.473Z,70
2017-07-30T10:17:27.436Z,75
2017-07-30T10:18:36.724Z,80
2017-07-30T10:19:46.011Z,85
2017-07-30T10:20:54.967Z,85
2017-07-30T10:22:03.930Z,95
2017-07-30T10:23:12.950Z,100
2017-07-30T10:24:21.920Z,90
2017-07-30T10:25:30.880Z,85
2017-07-30T10:26:39.834Z,80
2017-07-30T10:27:48.797Z,85
2017-07-30T10:28:58.586Z,85
2017-07-30T10:30:07.755Z,85
2017-07-30T10:31:16.721Z,85
2017-07-30T10:32:25.805Z,80
2017-07-30T10:33:34.879Z,80
2017-07-30T10:34:43.882Z,85
2017-07-30T10:35:52.843Z,85
2017-07-30T10:37:02.140Z,85
2017-07-30T10:38:11.106Z,90
2017-07-30T10:39:20.255Z,90
2017-07-30T10:40:29.217Z,85
2017-07-30T10:41:38.486Z,80
2017-07-30T10:42:47.652Z,85
2017-07-30T10:43:56.691Z,85
2017-07-30T10:45:05.747Z,80
2017-07-30T10:46:14.872Z,75
2017-07-30T10:47:23.914Z,75
2017-07-30T10:48:32.944Z,75
2017-07-30T10:49:41.971Z,75
2017-07-30T10:50:50.935Z,70
2017-07-30T10:52:00.464Z,75
2017-07-30T10:53:09.662Z,70
2017-07-30T10:54:18.824Z,70
2017-07-30T10:55:28.121Z,75
2017-07-30T10:56:37.249Z,70
2017-07-30T10:57:46.445Z,70
2017-07-30T10:58:55.692Z,65
2017-07-30T11:00:05.174Z,70
2017-07-30T11:01:14.190Z,70
2017-07-30T11:02:23.745Z,70
2017-07-30T11:03:32.950Z,65
2017-07-30T11:04:42.210Z,65
2017-07-30T11:05:51.453Z,65
2017-07-30T11:07:00.482Z,70
2017-07-30T11:08:09.442Z,65
2017-07-30T11:09:18.674Z,65
2017-07-30T11:10:27.638Z,70
2017-07-30T11:11:36.760Z,55
2017-07-30T11:12:45.847Z,65
2017-07-30T11:13:54.925Z,70
2017-07-30T11:15:04.038Z,65
2017-07-30T11:16:13.135Z,75
2017-07-30T11:17:22.183Z,70
2017-07-30T11:18:31.267Z,75
2017-07-30T11:19:40.333Z,75
2017-07-30T11:20:49.743Z,75
2017-07-30T11:21:58.796Z,75
2017-07-30T11:23:07.810Z,65
2017-07-30T11:24:17.091Z,75
2017-07-30T11:25:26.060Z,65
2017-07-30T11:26:35.168Z,55
2017-07-30T11:27:44.251Z,65
2017-07-30T11:28:53.221Z,55
2017-07-30T11:30:02.193Z,65
2017-07-30T11:31:11.482Z,70
2017-07-30T11:32:20.444Z,70
2017-07-30T11:33:29.405Z,70
2017-07-30T11:34:38.369Z,65
2017-07-30T11:35:47.389Z,60
2017-07-30T11:36:56.485Z,60
2017-07-30T11:38:05.464Z,60
2017-07-30T11:39:14.551Z,60
2017-07-30T11:40:23.614Z,60
2017-07-30T11:41:32.571Z,55
2017-07-30T11:42:41.535Z,60
2017-07-30T11:43:50.486Z,40
2017-07-30T11:44:59.449Z,65
2017-07-30T11:46:08.417Z,65
2017-07-30T11:47:17.400Z,70
2017-07-30T11:48:26.367Z,65
2017-07-30T11:49:35.333Z,60
2017-07-30T11:50:44.297Z,65
2017-07-30T11:51:53.262Z,75
2017-07-30T11:53:02.225Z,65
2017-07-30T11:54:11.181Z,60
2017-07-30T11:55:20.139Z,65
2017-07-30T11:56:29.102Z,65
2017-07-30T11:57:38.062Z,60
2017-07-30T11:58:47.306Z,60
2017-07-30T11:59:56.286Z,60
2017-07-30T12:01:05.246Z,60
2017-07-30T12:02:14.215Z,60
2017-07-30T12:03:23.182Z,55
2017-07-30T12:04:32.142Z,55
2017-07-30T12:05:41.120Z,55
2017-07-30T12:06:50.091Z,55
2017-07-30T12:07:59.063Z,30
2017-07-30T12:09:08.056Z,55
2017-07-30T12:10:17.036Z,65
2017-07-30T12:11:26.017Z,60
2017-07-30T12:12:35.008Z,55
2017-07-30T12:13:43.987Z,55
2017-07-30T12:14:52.978Z,55
2017-07-30T12:16:01.962Z,60
2017-07-30T12:17:10.947Z,55
2017-07-30T12:18:19.931Z,55
2017-07-30T12:19:28.933Z,55
2017-07-30T12:20:37.932Z,55
2017-07-30T12:21:46.910Z,55
2017-07-30T12:22:55.988Z,55
2017-07-30T12:24:04.980Z,45
2017-07-30T12:25:13.970Z,35
2017-07-30T12:26:22.947Z,55
2017-07-30T12:27:31.936Z,65
2017-07-30T12:28:40.931Z,60
2017-07-30T12:29:49.940Z,55
2017-07-30T12:30:58.927Z,55
2017-07-30T12:32:07.925Z,55
2017-07-30T12:33:16.911Z,55
2017-07-30T12:34:25.893Z,55
2017-07-30T12:35:34.890Z,55
2017-07-30T12:36:43.884Z,60
2017-07-30T12:37:52.865Z,65
2017-07-30T12:39:01.850Z,65
2017-07-30T12:40:10.814Z,60
2017-07-30T12:41:19.775Z,55
2017-07-30T12:42:28.735Z,55
2017-07-30T12:43:37.703Z,55
2017-07-30T12:44:46.691Z,55
2017-07-30T12:45:55.663Z,55
2017-07-30T12:47:04.640Z,55
2017-07-30T12:48:13.930Z,55
2017-07-30T12:49:22.902Z,55
2017-07-30T12:50:31.864Z,55
2017-07-30T12:51:40.819Z,55
2017-07-30T12:52:49.781Z,55
2017-07-30T12:53:58.742Z,55
2017-07-30T12:55:07.708Z,55
2017-07-30T12:56:16.670Z,65
2017-07-30T12:57:25.636Z,30
2017-07-30T12:58:34.926Z,50
2017-07-30T12:59:43.887Z,60
2017-07-30T13:00:52.850Z,65
2017-07-30T13:02:02.139Z,65
2017-07-30T13:03:11.109Z,30
2017-07-30T13:04:20.072Z,60
2017-07-30T13:05:29.044Z,65
2017-07-30T13:06:38.009Z,60
2017-07-30T13:07:46.975Z,65
2017-07-30T13:08:55.959Z,25
2017-07-30T13:10:04.944Z,25
2017-07-30T13:11:13.930Z,30
2017-07-30T13:12:23.253Z,50
2017-07-30T13:13:32.246Z,55
2017-07-30T13:14:41.237Z,40
2017-07-30T13:15:50.217Z,80
2017-07-30T13:16:59.197Z,75
2017-07-30T13:18:08.190Z,75
2017-07-30T13:19:17.166Z,75
2017-07-30T13:20:26.149Z,75
2017-07-30T13:21:35.136Z,75
2017-07-30T13:22:44.120Z,85
2017-07-30T13:23:53.109Z,80
2017-07-30T13:25:02.093Z,95
2017-07-30T13:26:11.081Z,70
2017-07-30T13:27:20.073Z,75
2017-07-30T13:28:29.072Z,70
2017-07-30T13:29:38.066Z,25
2017-07-30T13:30:47.068Z,65
2017-07-30T13:31:56.049Z,80
2017-07-30T13:33:05.055Z,65
2017-07-30T13:34:14.349Z,65
2017-07-30T13:35:23.339Z,65
2017-07-30T13:36:32.335Z,65
2017-07-30T13:37:41.322Z,65
2017-07-30T13:38:50.316Z,60
2017-07-30T13:39:59.310Z,60
2017-07-30T13:41:08.296Z,65
2017-07-30T13:42:17.280Z,60
2017-07-30T13:43:26.278Z,65
2017-07-30T13:44:35.262Z,70
2017-07-30T13:45:44.249Z,70
2017-07-30T13:46:53.245Z,65
2017-07-30T13:48:02.233Z,65
2017-07-30T13:49:11.225Z,65
2017-07-30T13:50:20.208Z,60
2017-07-30T13:51:29.196Z,65
2017-07-30T13:52:38.176Z,60
2017-07-30T13:53:47.165Z,60
2017-07-30T13:54:56.164Z,65
2017-07-30T13:56:05.151Z,65
2017-07-30T13:57:14.138Z,60
2017-07-30T13:58:23.124Z,60
2017-07-30T13:59:32.113Z,60
2017-07-30T14:00:41.101Z,60
2017-07-30T14:01:50.084Z,60
2017-07-30T14:02:59.155Z,60
2017-07-30T14:04:08.458Z,60
2017-07-30T14:05:17.444Z,60
2017-07-30T14:06:26.433Z,60
2017-07-30T14:07:35.429Z,60
2017-07-30T14:08:44.405Z,60
2017-07-30T14:09:53.373Z,60
2017-07-30T14:11:02.427Z,60
2017-07-30T14:12:11.601Z,60
2017-07-30T14:13:20.685Z,60
2017-07-30T14:14:29.924Z,60
2017-07-30T14:15:38.929Z,20
2017-07-30T14:16:48.020Z,20
2017-07-30T14:17:57.210Z,30
2017-07-30T14:19:06.183Z,25
2017-07-30T14:20:15.335Z,30
2017-07-30T14:21:24.742Z,60
2017-07-30T14:22:34.197Z,45
2017-07-30T14:23:43.320Z,60
2017-07-30T14:24:52.596Z,60
2017-07-30T14:26:01.957Z,60
2017-07-30T14:27:11.204Z,60
2017-07-30T14:28:20.327Z,60
2017-07-30T14:29:29.725Z,60
2017-07-30T14:30:38.766Z,60
2017-07-30T14:31:47.918Z,60
2017-07-30T14:32:56.900Z,65
2017-07-30T14:34:06.052Z,70
2017-07-30T14:35:15.162Z,70
2017-07-30T14:36:24.530Z,70
2017-07-30T14:37:33.630Z,65
2017-07-30T14:38:42.593Z,30
2017-07-30T14:39:52.022Z,55
2017-07-30T14:41:00.987Z,60
2017-07-30T14:42:09.956Z,60
2017-07-30T14:43:19.288Z,55
2017-07-30T14:44:28.352Z,30
2017-07-30T14:45:37.542Z,35
2017-07-30T14:46:46.513Z,25
2017-07-30T14:47:55.693Z,25
2017-07-30T14:49:04.750Z,55
2017-07-30T14:50:13.726Z,55
2017-07-30T14:51:22.898Z,55
2017-07-30T14:52:32.445Z,50
2017-07-30T14:53:41.413Z,50
2017-07-30T14:54:50.511Z,50
2017-07-30T14:55:59.576Z,55
2017-07-30T14:57:08.543Z,50
2017-07-30T14:58:17.510Z,50
2017-07-30T14:59:26.808Z,60
2017-07-30T15:00:35.769Z,40
2017-07-30T15:01:44.826Z,55
2017-07-30T15:02:53.827Z,50
2017-07-30T15:04:02.832Z,25
2017-07-30T15:05:11.805Z,45
2017-07-30T15:06:20.767Z,35
2017-07-30T15:07:29.744Z,25
2017-07-30T15:08:38.900Z,45
2017-07-30T15:09:47.923Z,20
2017-07-30T15:10:56.882Z,20
2017-07-30T15:12:05.850Z,20
2017-07-30T15:13:15.180Z,20
2017-07-30T15:14:24.217Z,20
2017-07-30T15:15:33.307Z,25
2017-07-30T15:16:42.426Z,25
2017-07-30T15:17:51.409Z,15
2017-07-30T15:19:00.488Z,15
2017-07-30T15:20:09.451Z,15
2017-07-30T15:21:18.415Z,15
2017-07-30T15:22:27.383Z,10
2017-07-30T15:23:36.356Z,10
2017-07-30T15:24:45.443Z,10
2017-07-30T15:25:54.412Z,10
2017-07-30T15:27:03.385Z,10
2017-07-30T15:28:12.435Z,15
2017-07-30T15:29:21.403Z,15
2017-07-30T15:30:30.369Z,25
2017-07-30T15:31:39.328Z,35
2017-07-30T15:32:48.292Z,25
2017-07-30T15:33:57.592Z,45
2017-07-30T15:35:06.605Z,55
2017-07-30T15:36:15.578Z,65
2017-07-30T15:37:24.541Z,65
2017-07-30T15:38:33.503Z,50
2017-07-30T15:39:42.625Z,75
2017-07-30T15:40:51.588Z,45
2017-07-30T15:42:00.544Z,50
2017-07-30T15:43:09.512Z,35
2017-07-30T15:44:18.492Z,50
2017-07-30T15:45:27.458Z,50
2017-07-30T15:46:36.429Z,40
2017-07-30T15:47:45.391Z,40
2017-07-30T15:48:54.362Z,45
2017-07-30T15:50:03.655Z,45
2017-07-30T15:51:12.936Z,45
2017-07-30T15:52:21.906Z,60
2017-07-30T15:53:30.876Z,55
2017-07-30T15:54:39.849Z,50
2017-07-30T15:55:48.811Z,50
2017-07-30T15:56:57.774Z,40
2017-07-30T15:58:06.756Z,35
2017-07-30T15:59:15.746Z,35
2017-07-30T16:00:24.715Z,35
2017-07-30T16:01:33.681Z,35
2017-07-30T16:02:42.644Z,35
2017-07-30T16:03:51.614Z,35
2017-07-30T16:05:00.577Z,35
2017-07-30T16:06:09.541Z,35
2017-07-30T16:07:18.510Z,35
2017-07-30T16:08:27.463Z,35
2017-07-30T16:09:36.428Z,35
2017-07-30T16:10:45.400Z,30
2017-07-30T16:11:54.357Z,30
2017-07-30T16:13:03.316Z,35
2017-07-30T16:14:12.599Z,30
2017-07-30T16:15:21.577Z,25
2017-07-30T16:16:30.862Z,20
2017-07-30T16:17:39.820Z,20
2017-07-30T16:18:48.788Z,30
2017-07-30T16:19:57.752Z,25
2017-07-30T16:21:06.725Z,20
2017-07-30T16:22:15.691Z,25
2017-07-30T16:23:24.682Z,30
2017-07-30T16:24:33.660Z,30
2017-07-30T16:25:42.620Z,25
2017-07-30T16:26:51.589Z,25
2017-07-30T16:28:00.551Z,25
2017-07-30T16:29:09.513Z,25
2017-07-30T16:30:18.476Z,25
2017-07-30T16:31:27.762Z,25
2017-07-30T16:32:36.724Z,25
2017-07-30T16:33:45.691Z,25